Data for 10/04/2014

Time Sea-Level Adjusted Pressure Absolute Pressure Temperature Relative Humidity Dew Point   
(mb) (inHg) (mb) (inHg) (C) (F) (%) (C) (F)
00:05 1025 30.27 854 25.22 5.2 41.4 52 -3.8 25.1
00:10 1025 30.27 854 25.22 5.1 41.3 52 -3.8 25.1
00:15 1025 30.27 854 25.22 5.1 41.1 53 -3.8 25.1
00:20 1025 30.27 854 25.22 5.1 41.1 52 -4 24.9
00:25 1025 30.27 854 25.22 5.1 41.1 53 -3.8 25.2
00:30 1025 30.27 854 25.22 4.8 40.7 53 -3.8 25.1
00:35 1025 30.27 854 25.22 4.9 40.8 52 -4.2 24.4
00:40 1025 30.27 854 25.22 5.2 41.3 51 -4 24.8
00:45 1025 30.27 854 25.22 5.1 41.2 52 -4 24.8
00:50 1025 30.27 854 25.22 5.2 41.4 51 -4.1 24.7
00:55 1025 30.27 854 25.22 5.2 41.3 52 -3.8 25.2
01:00 1025 30.27 854 25.22 4.8 40.7 54 -3.7 25.3
01:05 1025 30.27 854 25.22 4.8 40.7 52 -4.1 24.6
01:10 1025 30.27 854 25.22 5.2 41.3 49 -4.7 23.5
01:15 1025 30.27 854 25.22 5.6 42.1 43 -5.9 21.3
01:20 1025 30.27 854 25.22 5.9 42.7 50 -3.8 25.2
01:25 1025 30.27 854 25.22 5.5 42 49 -4.3 24.2
01:30 1025 30.27 854 25.22 5.9 42.6 48 -4.2 24.4
01:35 1025 30.27 854 25.22 5.7 42.3 50 -3.8 25.1
01:40 1025 30.27 854 25.22 5.5 41.9 52 -3.7 25.4
01:45 1025 30.27 854 25.22 5.4 41.7 54 -3.3 26.1
01:50 1025 30.27 854 25.22 5 41 56 -3.1 26.4
01:55 1025 30.27 854 25.22 4.6 40.3 58 -3 26.6
02:00 1025 30.27 854 25.22 4.4 40 58 -3.1 26.3
02:05 1025 30.27 854 25.22 4.5 40.1 57 -3.4 26
02:10 1025 30.27 854 25.22 5 41 55 -3.2 26.2
02:15 1025 30.27 854 25.22 5.4 41.7 54 -3.1 26.3
02:20 1025 30.27 854 25.22 5.7 42.3 53 -3.2 26.2
02:25 1025 30.27 854 25.22 5.9 42.5 53 -3.1 26.5
02:30 1025 30.27 854 25.22 6 42.7 50 -3.6 25.6
02:35 1025 30.27 854 25.22 6.1 43 51 -3.3 26.1
02:40 1025 30.27 854 25.22 6.1 43 52 -3.1 26.5
02:45 1025 30.27 854 25.22 6.2 43.2 51 -3.1 26.4
02:50 1025 30.27 854 25.22 6.5 43.7 49 -3.3 26
02:55 1025 30.27 854 25.22 6.6 43.9 50 -3.2 26.3
03:00 1025 30.27 854 25.22 6.2 43.2 52 -2.9 26.8
03:05 1025 30.27 854 25.22 5.9 42.6 53 -3 26.5
03:10 1025 30.27 854 25.22 6 42.8 52 -3.2 26.2
03:15 1024 30.24 854 25.22 6.3 43.3 50 -3.5 25.8
03:20 1024 30.24 854 25.22 6.3 43.3 52 -2.9 26.7
03:25 1025 30.27 854 25.22 5.7 42.3 55 -2.6 27.3
03:30 1025 30.27 854 25.22 5.3 41.6 53 -3.5 25.8
03:35 1024 30.24 854 25.22 6 42.7 49 -3.9 24.9
03:40 1024 30.24 854 25.22 6.7 44.1 48 -3.7 25.4
03:45 1024 30.24 854 25.22 6.6 43.9 50 -3.1 26.4
03:50 1024 30.24 854 25.22 6.1 43 47 -4.5 23.9
03:55 1024 30.24 853 25.19 6.6 43.9 45 -4.5 24
04:00 1024 30.24 853 25.19 6.9 44.4 46 -4 24.7
04:05 1024 30.24 853 25.19 6.3 43.4 46 -4.4 24.2
04:10 1024 30.24 853 25.19 6 42.8 47 -4.6 23.7
04:15 1024 30.24 853 25.19 6.1 42.9 46 -4.8 23.3
04:20 1024 30.24 853 25.19 7.1 44.8 40 -5.7 21.8
04:25 1024 30.24 853 25.19 8.3 46.9 38 -5.1 22.9
04:30 1024 30.24 853 25.19 8.7 47.6 38 -4.8 23.4
04:35 1024 30.24 853 25.19 8.7 47.6 39 -4.5 24
04:40 1024 30.24 853 25.19 8.5 47.3 40 -4.4 24
04:45 1024 30.24 853 25.19 8.3 47 41 -4.2 24.5
04:50 1024 30.24 853 25.19 8.2 46.7 41 -4.1 24.5
04:55 1024 30.24 853 25.19 7.9 46.2 43 -3.8 25.1
05:00 1024 30.24 853 25.19 7.7 45.8 44 -3.8 25.2
05:05 1024 30.24 853 25.19 7.2 44.9 49 -2.9 26.9
05:10 1024 30.24 853 25.19 6.8 44.2 49 -3.2 26.2
05:15 1024 30.24 853 25.19 6.5 43.8 49 -3.3 26.1
05:20 1024 30.24 853 25.19 6.7 44 46 -4.1 24.7
05:25 1024 30.24 853 25.19 7.3 45.1 45 -3.9 25.1
05:30 1024 30.24 853 25.19 7.3 45.2 46 -3.6 25.5
05:35 1024 30.24 853 25.19 7.1 44.7 49 -2.9 26.7
05:40 1024 30.24 853 25.19 6.9 44.4 47 -3.6 25.5
05:45 1024 30.24 853 25.19 7.1 44.8 47 -3.5 25.7
05:50 1024 30.24 853 25.19 7.2 45 48 -3.1 26.4
05:55 1024 30.24 853 25.19 7.1 44.7 48 -3.2 26.3
06:00 1024 30.24 853 25.19 7.1 44.8 47 -3.4 25.9
06:05 1024 30.24 853 25.19 7.3 45.2 45 -3.9 24.9
06:10 1024 30.24 853 25.19 7.7 45.8 51 -2 28.5
06:15 1024 30.24 853 25.19 5.9 42.6 59 -1.4 29.4
06:20 1024 30.24 853 25.19 5.1 41.2 59 -2.3 27.9
06:25 1024 30.24 853 25.19 4.9 40.9 63 -1.5 29.2
06:30 1024 30.24 853 25.19 5.1 41.2 59 -2.3 27.8
06:35 1024 30.24 853 25.19 5.7 42.3 54 -2.8 27
06:40 1024 30.24 853 25.19 6.3 43.3 52 -2.9 26.7
06:45 1023 30.21 853 25.19 6.5 43.7 51 -2.9 26.7
06:50 1023 30.21 853 25.19 6.4 43.5 55 -2 28.4
06:55 1023 30.21 853 25.19 6.1 43 56 -1.9 28.5
07:00 1023 30.21 853 25.19 5.8 42.5 56 -2.3 27.8
07:05 1023 30.21 853 25.19 5.9 42.6 56 -2.3 27.9
07:10 1023 30.21 853 25.19 6.6 43.8 49 -3.3 26
07:15 1023 30.21 853 25.19 7.8 46 48 -2.4 27.6
07:20 1023 30.21 853 25.19 7.8 46.1 47 -2.9 26.8
07:25 1023 30.21 853 25.19 8.3 46.9 46 -2.6 27.4
07:30 1023 30.21 853 25.19 8.7 47.6 44 -3 26.7
07:35 1023 30.21 853 25.19 9.1 48.4 42 -3.2 26.3
07:40 1023 30.21 853 25.19 9.4 48.9 43 -2.5 27.5
07:45 1023 30.21 853 25.19 9.5 49.2 41 -2.9 26.8
07:50 1023 30.21 853 25.19 10 50 38 -3.8 25.2
07:55 1023 30.21 853 25.19 10.4 50.8 37 -3.5 25.7
08:00 1023 30.21 852 25.16 10.4 50.7 38 -3.2 26.2
08:05 1023 30.21 853 25.19 10.5 50.9 39 -2.9 26.8
08:10 1023 30.21 853 25.19 10.6 51.1 39 -2.7 27.1
08:15 1023 30.21 853 25.19 10.5 50.9 41 -2.3 27.9
08:20 1023 30.21 853 25.19 10.4 50.8 42 -1.8 28.8
08:25 1024 30.24 853 25.19 10.4 50.8 43 -1.4 29.4
08:30 1024 30.24 853 25.19 10.6 51.1 44 -1.2 29.9
08:35 1024 30.24 853 25.19 11 51.9 43 -1.1 30
08:40 1024 30.24 853 25.19 11.4 52.6 42 -1.1 30
08:45 1024 30.24 853 25.19 11.7 53.1 38 -1.9 28.5
08:50 1024 30.24 853 25.19 12 53.5 36 -2.5 27.5
08:55 1024 30.24 853 25.19 12.3 54.2 34 -2.9 26.9
09:00 1024 30.24 853 25.19 12.6 54.7 34 -2.6 27.3
09:05 1024 30.24 853 25.19 12.9 55.2 33 -2.7 27.1
09:10 1024 30.24 853 25.19 13.1 55.5 33 -2.6 27.3
09:15 1024 30.24 853 25.19 13.1 55.5 35 -1.9 28.6
09:20 1024 30.24 853 25.19 12.9 55.3 36 -1.8 28.7
09:25 1024 30.24 853 25.19 13.2 55.7 34 -2.4 27.7
09:30 1024 30.24 853 25.19 13.8 56.8 33 -2.3 27.9
09:35 1024 30.24 853 25.19 14 57.1 32 -2.4 27.6
09:40 1024 30.24 853 25.19 14.2 57.6 32 -2.1 28.2
09:45 1024 30.24 853 25.19 14.5 58.1 32 -2 28.5
09:50 1024 30.24 853 25.19 15.2 59.3 30 -2.1 28.3
09:55 1024 30.24 853 25.19 15.4 59.8 29 -2.5 27.4
10:00 1024 30.24 853 25.19 15.6 60 30 -2 28.3
10:05 1024 30.24 853 25.19 15.7 60.2 29 -2 28.4
10:10 1024 30.24 853 25.19 16.1 60.9 28 -2.3 27.8
10:15 1024 30.24 853 25.19 16.6 61.8 28 -2.1 28.3
10:20 1024 30.24 853 25.19 16.6 61.9 25 -3.2 26.3
10:25 1024 30.24 853 25.19 16.8 62.2 25 -3 26.5
10:30 1023 30.21 853 25.19 16.7 62.1 26 -2.5 27.4
10:35 1023 30.21 853 25.19 16.7 62.1 27 -2.2 28.1
10:40 1023 30.21 853 25.19 16.7 62.1 27 -2.1 28.2
10:45 1023 30.21 853 25.19 16.6 61.8 28 -2 28.3
10:50 1023 30.21 853 25.19 16.6 61.9 26 -2.8 27
10:55 1023 30.21 853 25.19 16.7 62 27 -2.3 27.9
11:00 1023 30.21 852 25.16 16.3 61.4 28 -2 28.4
11:05 1023 30.21 852 25.16 16.6 61.8 28 -2 28.4
11:10 1023 30.21 852 25.16 17.3 63.1 26 -2.2 28
11:15 1023 30.21 852 25.16 17.7 63.9 26 -1.7 28.9
11:20 1023 30.21 852 25.16 17.6 63.7 28 -1 30.2
11:25 1023 30.21 852 25.16 17.3 63.2 29 -0.7 30.7
11:30 1023 30.21 852 25.16 17.4 63.3 28 -1 30.2
11:35 1023 30.21 852 25.16 17.8 64 25 -2.4 27.6
11:40 1023 30.21 852 25.16 18.3 64.9 24 -2.8 27
11:45 1023 30.21 852 25.16 18.7 65.6 23 -2.6 27.3
11:50 1023 30.21 852 25.16 18.4 65 24 -2.7 27.1
11:55 1023 30.21 852 25.16 18.6 65.4 24 -2.4 27.7
12:00 1023 30.21 852 25.16 18.2 64.8 23 -2.9 26.7
12:05 1023 30.21 852 25.16 17.9 64.2 24 -2.7 27.1
12:10 1023 30.21 852 25.16 18.1 64.6 24 -2.5 27.6
12:15 1023 30.21 852 25.16 18.4 65 24 -2.6 27.4
12:20 1023 30.21 852 25.16 18.5 65.2 24 -2.4 27.7
12:25 1023 30.21 852 25.16 18.6 65.4 24 -2.4 27.7
12:30 1023 30.21 852 25.16 19 66.1 23 -2.6 27.3
12:35 1023 30.21 852 25.16 19.3 66.8 23 -2.2 28
12:40 1023 30.21 852 25.16 19.5 67.2 23 -2.2 28
12:45 1023 30.21 852 25.16 18.8 65.8 25 -1.7 28.9
12:50 1023 30.21 852 25.16 18.7 65.7 23 -2.5 27.6
12:55 1022 30.18 852 25.16 19.2 66.6 24 -1.9 28.7
13:00 1022 30.18 852 25.16 19.6 67.3 23 -1.8 28.7
13:05 1022 30.18 852 25.16 19.8 67.6 23 -1.8 28.8
13:10 1022 30.18 852 25.16 19.6 67.2 23 -2 28.4
13:15 1022 30.18 851 25.13 19.7 67.5 23 -1.9 28.5
13:20 1022 30.18 851 25.13 19.7 67.5 23 -1.9 28.5
13:25 1022 30.18 851 25.13 19.8 67.6 23 -2.1 28.3
13:30 1022 30.18 851 25.13 20.2 68.4 22 -1.7 28.9
13:35 1022 30.18 851 25.13 20 67.9 23 -1.4 29.5
13:40 1022 30.18 851 25.13 19.2 66.5 25 -1 30.1
13:45 1022 30.18 851 25.13 19.1 66.3 24 -1.8 28.8
13:50 1022 30.18 851 25.13 19.3 66.8 24 -1.6 29.2
13:55 1022 30.18 851 25.13 19.6 67.2 23 -1.8 28.8
14:00 1022 30.18 851 25.13 19.9 67.8 24 -1.4 29.5
14:05 1022 30.18 851 25.13 20.2 68.3 23 -1.3 29.6
14:10 1022 30.18 851 25.13 19.9 67.7 24 -1.1 30
14:15 1022 30.18 851 25.13 20.2 68.3 25 -0.3 31.4
14:20 1022 30.18 851 25.13 20.2 68.3 24 -1.1 30
14:25 1022 30.18 851 25.13 19.9 67.8 24 -0.9 30.4
14:30 1022 30.18 851 25.13 19.1 66.3 26 -0.8 30.6
14:35 1022 30.18 851 25.13 18.7 65.7 26 -0.9 30.3
14:40 1022 30.18 851 25.13 18.6 65.4 26 -0.9 30.3
14:45 1021 30.15 851 25.13 18.6 65.4 26 -1.1 30.1
14:50 1021 30.15 851 25.13 18.8 65.8 26 -1 30.3
14:55 1021 30.15 850 25.1 19.2 66.5 26 -0.6 30.9
15:00 1021 30.15 850 25.1 19.3 66.7 26 -0.6 30.9
15:05 1021 30.15 850 25.1 19.2 66.5 27 -0.3 31.4
15:10 1021 30.15 850 25.1 18.9 65.9 27 -0.4 31.3
15:15 1021 30.15 850 25.1 18.6 65.6 27 -0.5 31.1
15:20 1021 30.15 850 25.1 18.5 65.4 27 -0.5 31.1
15:25 1021 30.15 850 25.1 18.6 65.4 29 0.1 32.3
15:30 1021 30.15 850 25.1 18.3 65 29 0.3 32.5
15:35 1021 30.15 850 25.1 18.2 64.7 28 -0.5 31
15:40 1021 30.15 850 25.1 18.6 65.4 27 -0.5 31.2
15:45 1021 30.15 850 25.1 18.9 65.9 26 -0.8 30.6
15:50 1021 30.15 850 25.1 19.8 67.6 25 -0.6 30.9
15:55 1021 30.15 850 25.1 20 67.9 26 0 32.1
16:00 1021 30.15 850 25.1 20 68.1 25 -0.6 31
16:05 1021 30.15 850 25.1 20 68 26 -0 32
16:10 1021 30.15 850 25.1 20.1 68.1 26 -0.1 31.8
16:15 1021 30.15 850 25.1 19.9 67.8 26 -0.2 31.6
16:20 1021 30.15 850 25.1 19.6 67.2 26 -0.1 31.9
16:25 1021 30.15 850 25.1 19.1 66.4 27 -0.3 31.5
16:30 1021 30.15 850 25.1 19.2 66.6 27 -0 31.9
16:35 1021 30.15 850 25.1 19.2 66.6 27 0.1 32.2
16:40 1021 30.15 850 25.1 19.2 66.5 28 0.4 32.8
16:45 1021 30.15 850 25.1 19.2 66.6 28 0.4 32.8
16:50 1021 30.15 850 25.1 19.3 66.7 28 0.5 32.9
16:55 1021 30.15 850 25.1 19.3 66.8 29 0.8 33.4
17:00 1021 30.15 850 25.1 19.2 66.5 28 0.6 33
17:05 1021 30.15 850 25.1 18.9 66 29 0.7 33.2
17:10 1021 30.15 850 25.1 18.6 65.5 30 0.9 33.6
17:15 1021 30.15 850 25.1 18.4 65 31 1.3 34.3
17:20 1021 30.15 850 25.1 18.1 64.6 32 1.3 34.4
17:25 1021 30.15 850 25.1 17.9 64.2 32 1 33.7
17:30 1021 30.15 850 25.1 17.6 63.7 33 1.2 34.1
17:35 1021 30.15 850 25.1 17.3 63.2 33 1 33.9
17:40 1021 30.15 850 25.1 17.2 62.9 32 0.6 33.1
17:45 1021 30.15 850 25.1 17.2 62.9 32 0.6 33.1
17:50 1021 30.15 850 25.1 17.1 62.7 33 0.6 33.1
17:55 1021 30.15 850 25.1 16.9 62.5 33 0.9 33.5
18:00 1021 30.15 850 25.1 16.6 61.9 34 0.6 33.1
18:05 1021 30.15 850 25.1 16.4 61.6 34 0.5 32.9
18:10 1021 30.15 850 25.1 16.3 61.4 34 0.5 32.8
18:15 1021 30.15 850 25.1 16.3 61.3 34 0.3 32.6
18:20 1021 30.15 850 25.1 16.2 61.1 34 0.5 33
18:25 1021 30.15 850 25.1 16 60.8 35 0.8 33.4
18:30 1021 30.15 850 25.1 15.8 60.5 36 0.9 33.7
18:35 1021 30.15 850 25.1 15.6 60 37 1 33.8
18:40 1021 30.15 850 25.1 15.3 59.6 38 1 33.9
18:45 1021 30.15 850 25.1 15.2 59.4 38 1 33.8
18:50 1021 30.15 850 25.1 15.2 59.3 38 1.1 33.9
18:55 1021 30.15 850 25.1 15.2 59.3 38 0.9 33.7
19:00 1021 30.15 850 25.1 15.2 59.4 38 1 33.9
19:05 1021 30.15 850 25.1 15.2 59.3 38 1 33.9
19:10 1021 30.15 850 25.1 15.2 59.3 38 0.9 33.6
19:15 1021 30.15 850 25.1 15.4 59.6 37 0.8 33.4
19:20 1021 30.15 850 25.1 15.6 60 37 0.9 33.7
19:25 1021 30.15 850 25.1 15.5 59.9 37 0.9 33.7
19:30 1021 30.15 850 25.1 15.5 59.9 37 1.2 34.1
19:35 1021 30.15 850 25.1 15.4 59.7 38 1.1 34
19:40 1021 30.15 850 25.1 15.4 59.7 38 1.3 34.4
19:45 1021 30.15 850 25.1 15.3 59.6 38 1.2 34.2
19:50 1021 30.15 850 25.1 15.4 59.8 38 1.4 34.5
19:55 1021 30.15 850 25.1 15.3 59.5 39 1.5 34.8
20:00 1021 30.15 850 25.1 15.2 59.4 39 1.5 34.6
20:05 1021 30.15 850 25.1 15.4 59.6 39 1.6 34.9
20:10 1021 30.15 850 25.1 15.1 59.1 41 2.1 35.7
20:15 1021 30.15 850 25.1 14.8 58.7 41 1.8 35.2
20:20 1021 30.15 850 25.1 14.9 58.8 41 1.9 35.4
20:25 1021 30.15 850 25.1 15 59 40 1.6 34.9
20:30 1021 30.15 850 25.1 15.2 59.3 40 1.8 35.2
20:35 1021 30.15 850 25.1 15.1 59.2 41 1.9 35.4
20:40 1021 30.15 850 25.1 15 59 41 1.9 35.4
20:45 1021 30.15 850 25.1 14.9 58.9 41 1.8 35.3
20:50 1021 30.15 850 25.1 15 59 41 1.8 35.2
20:55 1021 30.15 850 25.1 15 58.9 41 1.8 35.2
21:00 1021 30.15 850 25.1 14.9 58.9 42 2.3 36.1
21:05 1021 30.15 850 25.1 14.8 58.6 42 2.2 35.9
21:10 1021 30.15 850 25.1 14.8 58.6 43 2.2 36
21:15 1021 30.15 850 25.1 14.8 58.6 43 2.3 36.1
21:20 1021 30.15 850 25.1 14.7 58.4 43 2.2 35.9
21:25 1021 30.15 850 25.1 14.6 58.3 43 2.2 35.9
21:30 1021 30.15 850 25.1 14.6 58.2 43 2.2 36
21:35 1021 30.15 850 25.1 14.5 58.1 44 2.4 36.3
21:40 1021 30.15 850 25.1 14.4 57.9 43 2.2 36
21:45 1021 30.15 850 25.1 14.3 57.7 44 2.3 36.2
21:50 1021 30.15 850 25.1 14.2 57.6 44 2.2 35.9
21:55 1021 30.15 850 25.1 14.2 57.5 44 2.3 36.1
22:00 1021 30.15 850 25.1 14.1 57.4 44 2.2 36
22:05 1021 30.15 850 25.1 14 57.2 44 2.1 35.8
22:10 1021 30.15 850 25.1 14 57.1 45 2.3 36.1
22:15 1021 30.15 850 25.1 14 57.1 45 2.2 35.9
22:20 1021 30.15 850 25.1 14 57.2 45 2.2 36
22:25 1021 30.15 850 25.1 13.7 56.6 48 3.1 37.5
22:30 1021 30.15 850 25.1 13.2 55.8 49 2.8 37.1
22:35 1021 30.15 850 25.1 13.1 55.6 48 2.5 36.6
22:40 1021 30.15 850 25.1 13.3 55.9 48 2.6 36.8
22:45 1021 30.15 850 25.1 13.4 56.1 48 2.7 36.8
22:50 1021 30.15 850 25.1 13.7 56.6 46 2.4 36.4
22:55 1021 30.15 850 25.1 13.8 56.9 46 2.3 36.2
23:00 1021 30.15 850 25.1 14 57.1 45 2.4 36.3
23:05 1021 30.15 850 25.1 14 57.2 46 2.6 36.6
23:10 1021 30.15 850 25.1 14 57.1 46 2.5 36.6
23:15 1021 30.15 850 25.1 13.9 57 46 2.7 36.9
23:20 1021 30.15 850 25.1 13.8 56.8 49 3.5 38.3
23:25 1021 30.15 850 25.1 13.5 56.4 49 3 37.4
23:30 1021 30.15 850 25.1 13.5 56.3 46 2.3 36.2
23:35 1021 30.15 850 25.1 13.9 57.1 45 2.3 36.2
23:40 1021 30.15 850 25.1 14.1 57.4 45 2.5 36.5
23:45 1021 30.15 850 25.1 14.1 57.3 46 2.6 36.7
23:50 1021 30.15 850 25.1 14 57.1 46 2.7 36.9
23:55 1021 30.15 850 25.1 13.8 56.9 47 2.6 36.8
24:00 1021 30.15 850 25.1 13.8 56.8 47 2.7 36.8